Terminal Aerodrome Forecast
Issued by NWS

Home | Current Version | Previous Version | Text Only | Print | Product List | Glossary On
Versions: 1 2 3 4 5 6 7 8 9 10 11 12 13 14 15 16 17 18 19 20 21 22 23 24 25 26 27 28 29 30 31 32 33 34 35 36 37 38 39 40 41 42 43 44
249
FTUS43 KABR 191735
TAFATY
TAF
KATY 191735Z 1918/2018 28007KT P6SM SCT170
     FM200100 28010KT 5SM HZ BKN005
     FM200300 27011KT P6SM BKN007
     FM200400 26011KT P6SM BKN010
     FM200800 27012KT P6SM BKN027
     FM201100 29010G16KT P6SM BKN011
     FM201200 30010KT P6SM BKN008=

USA.gov is the U.S. government's official web portal to all federal, state and local government web resources and services.